createdAt,value
2023-03-18T17:11:10.239Z,64.90
2023-03-18T17:13:44.805Z,64.99
2023-03-18T17:16:19.016Z,64.95
2023-03-18T17:18:47.165Z,64.85
2023-03-18T17:21:18.514Z,64.84
2023-03-18T17:23:47.937Z,64.83
2023-03-18T17:26:16.414Z,64.73
2023-03-18T17:28:48.398Z,64.82
2023-03-18T17:31:17.123Z,64.84
2023-03-18T17:33:51.185Z,64.71
2023-03-18T17:36:20.655Z,64.47
2023-03-18T17:38:48.980Z,64.45
2023-03-18T17:41:21.345Z,64.29
2023-03-18T17:43:54.954Z,64.58
2023-03-18T17:46:23.307Z,65.25
2023-03-18T17:48:51.798Z,65.69
2023-03-18T17:51:24.705Z,65.91
2023-03-18T17:53:56.885Z,66.32
2023-03-18T17:56:25.985Z,66.80
2023-03-18T17:58:56.696Z,67.08
2023-03-18T18:01:30.205Z,67.64
2023-03-18T18:03:59.140Z,68.14
2023-03-18T18:06:30.742Z,68.23
2023-03-18T18:09:00.491Z,68.48
2023-03-18T18:11:35.776Z,68.47
2023-03-18T18:14:25.785Z,68.77
2023-03-18T18:16:54.186Z,69.24
2023-03-18T18:19:24.322Z,69.53
2023-03-18T18:21:53.465Z,70.91
2023-03-18T18:24:29.078Z,72.08
2023-03-18T18:26:57.394Z,74.35
2023-03-18T18:29:28.318Z,75.45
2023-03-18T18:31:58.048Z,76.53
2023-03-18T18:34:26.806Z,77.32
2023-03-18T18:36:54.802Z,77.81
2023-03-18T18:39:22.997Z,78.79
2023-03-18T18:42:10.182Z,79.25
2023-03-18T18:44:39.004Z,79.49
2023-03-18T18:47:19.611Z,79.89
2023-03-18T18:49:52.011Z,80.72
2023-03-18T18:52:20.225Z,80.81
2023-03-18T18:54:48.468Z,81.17
2023-03-18T18:57:29.451Z,81.23
2023-03-18T18:59:59.280Z,81.47
2023-03-18T19:02:33.924Z,81.38
2023-03-18T19:05:04.777Z,81.12
2023-03-18T19:07:33.818Z,81.15
2023-03-18T19:10:01.879Z,81.40
2023-03-18T19:12:30.394Z,81.62
2023-03-18T19:14:59.829Z,81.87
2023-03-18T19:17:28.380Z,82.10
2023-03-18T19:19:56.880Z,82.17
2023-03-18T19:22:26.280Z,82.24
2023-03-18T19:24:54.917Z,82.64
2023-03-18T19:27:30.330Z,82.93
2023-03-18T19:30:00.157Z,83.19
2023-03-18T19:32:28.204Z,83.25
2023-03-18T19:34:59.432Z,83.41
2023-03-18T19:37:32.427Z,83.42
2023-03-18T19:40:01.813Z,83.30
2023-03-18T19:42:30.571Z,83.22
2023-03-18T19:44:58.726Z,83.31
2023-03-18T19:47:31.766Z,83.41
2023-03-18T19:50:01.801Z,83.55
2023-03-18T19:52:33.354Z,83.62
2023-03-18T19:55:08.255Z,83.63
2023-03-18T19:57:37.537Z,83.66
2023-03-18T20:00:30.295Z,83.70
2023-03-18T20:02:58.675Z,83.44
2023-03-18T20:05:27.771Z,83.37
2023-03-18T20:07:56.747Z,83.25
2023-03-18T20:10:25.124Z,83.00
2023-03-18T20:12:57.643Z,82.89
2023-03-18T20:15:28.948Z,82.75
2023-03-18T20:18:01.051Z,82.71
2023-03-18T20:20:32.176Z,82.31
2023-03-18T20:23:02.281Z,82.36
2023-03-18T20:25:32.951Z,81.66
2023-03-18T20:28:04.799Z,81.29
2023-03-18T20:30:37.771Z,81.01
2023-03-18T20:33:07.472Z,81.07
2023-03-18T20:35:39.337Z,81.12
2023-03-18T20:38:10.533Z,81.47
2023-03-18T20:40:41.151Z,81.55
2023-03-18T20:43:19.280Z,81.66
2023-03-18T20:45:51.771Z,81.83
2023-03-18T20:48:21.114Z,82.19
2023-03-18T20:50:51.899Z,82.46
2023-03-18T20:53:22.616Z,82.69
2023-03-18T20:55:51.136Z,82.87
2023-03-18T20:58:22.247Z,83.21
2023-03-18T21:00:52.328Z,83.74
2023-03-18T21:03:29.648Z,83.88
2023-03-18T21:05:59.048Z,84.00
2023-03-18T21:08:28.440Z,84.00
2023-03-18T21:11:03.355Z,84.13
2023-03-18T21:13:38.004Z,84.19
2023-03-18T21:16:09.961Z,84.08
2023-03-18T21:18:45.517Z,84.47
2023-03-18T21:21:18.085Z,84.64
2023-03-18T21:23:49.376Z,84.61
2023-03-18T21:26:19.351Z,84.91
2023-03-18T21:28:48.469Z,85.00
2023-03-18T21:31:26.290Z,85.54
2023-03-18T21:33:55.414Z,85.77
2023-03-18T21:36:26.480Z,86.19
2023-03-18T21:38:55.467Z,86.32
2023-03-18T21:41:28.204Z,86.39
2023-03-18T21:43:56.429Z,86.59
2023-03-18T21:46:27.090Z,86.37
2023-03-18T21:48:55.997Z,86.32
2023-03-18T21:51:38.731Z,86.34
2023-03-18T21:54:20.583Z,86.38
2023-03-18T21:56:51.752Z,86.45
2023-03-18T21:59:23.080Z,86.39
2023-03-18T22:01:53.236Z,86.62
2023-03-18T22:04:22.268Z,86.95
2023-03-18T22:06:51.038Z,87.10
2023-03-18T22:09:19.100Z,87.36
2023-03-18T22:11:47.120Z,87.26
2023-03-18T22:14:22.352Z,87.06
2023-03-18T22:16:50.400Z,87.09
2023-03-18T22:19:18.739Z,87.19
2023-03-18T22:21:46.969Z,87.16
2023-03-18T22:24:15.764Z,87.43
2023-03-18T22:26:43.931Z,87.28
2023-03-18T22:29:12.631Z,87.00
2023-03-18T22:31:43.790Z,86.90
2023-03-18T22:34:22.665Z,87.24
2023-03-18T22:36:50.699Z,87.53
2023-03-18T22:39:18.796Z,87.53
2023-03-18T22:41:50.946Z,87.40
2023-03-18T22:44:22.759Z,87.72
2023-03-18T22:46:51.034Z,87.87
2023-03-18T22:49:19.114Z,88.15
2023-03-18T22:51:48.031Z,88.44
2023-03-18T22:54:19.136Z,88.84
2023-03-18T22:56:47.130Z,89.17
2023-03-18T22:59:15.360Z,89.12
2023-03-18T23:01:43.982Z,88.49
2023-03-18T23:04:12.344Z,87.76
2023-03-18T23:06:44.252Z,87.51
2023-03-18T23:09:13.886Z,88.01
2023-03-18T23:11:41.918Z,88.30
2023-03-18T23:14:11.075Z,88.53
2023-03-18T23:16:41.414Z,88.09
2023-03-18T23:19:09.586Z,87.95
2023-03-18T23:21:37.852Z,87.96
2023-03-18T23:24:07.247Z,88.38
2023-03-18T23:26:36.801Z,87.71
2023-03-18T23:29:06.153Z,87.82
2023-03-18T23:31:34.403Z,88.55
2023-03-18T23:34:03.712Z,88.27
2023-03-18T23:36:32.711Z,88.21
2023-03-18T23:39:01.392Z,88.37
2023-03-18T23:41:30.816Z,88.63
2023-03-18T23:44:03.264Z,89.04
2023-03-18T23:46:32.752Z,89.03
2023-03-18T23:49:00.831Z,89.41
2023-03-18T23:51:29.133Z,90.03
2023-03-18T23:53:57.185Z,90.72
2023-03-18T23:56:26.316Z,92.33
2023-03-18T23:58:54.974Z,93.16
